createdAt,value
2022-07-29T00:00:21.917Z,99811.47
2022-07-29T00:02:51.448Z,99811.72
2022-07-29T00:05:19.821Z,99812.44
2022-07-29T00:07:47.937Z,99815.91
2022-07-29T00:10:16.007Z,99817.22
2022-07-29T00:12:44.080Z,99810.25
2022-07-29T00:15:12.471Z,99822.03
2022-07-29T00:17:40.533Z,99808.75
2022-07-29T00:20:11.621Z,99823.81
2022-07-29T00:22:39.953Z,99820.13
2022-07-29T00:25:08.640Z,99828.22
2022-07-29T00:27:36.697Z,99825.38
2022-07-29T00:30:05.257Z,99825.53
2022-07-29T00:32:33.296Z,99823.63
2022-07-29T00:35:18.615Z,99821.13
2022-07-29T00:37:48.038Z,99828.97
2022-07-29T00:40:16.116Z,99830.63
2022-07-29T00:42:45.169Z,99833.94
2022-07-29T00:45:13.215Z,99838.22
2022-07-29T00:47:41.317Z,99837.38
2022-07-29T00:50:11.407Z,99843.69
2022-07-29T00:52:40.167Z,99838.59
2022-07-29T00:55:11.075Z,99832.75
2022-07-29T00:57:39.208Z,99820.69
2022-07-29T01:00:08.685Z,99829.34
2022-07-29T01:02:36.750Z,99830.09
2022-07-29T01:05:04.907Z,99830.56
2022-07-29T01:07:33.210Z,99818.56
2022-07-29T01:10:01.246Z,99825.00
2022-07-29T01:12:32.836Z,99819.78
2022-07-29T01:15:00.906Z,99811.00
2022-07-29T01:17:30.130Z,99809.91
2022-07-29T01:20:00.732Z,99802.19
2022-07-29T01:22:31.841Z,99813.72
2022-07-29T01:25:20.731Z,99806.69
2022-07-29T01:28:02.415Z,99808.84
2022-07-29T01:30:31.801Z,99812.28
2022-07-29T01:33:02.292Z,99809.22
2022-07-29T01:35:33.205Z,99809.22
2022-07-29T01:38:05.341Z,99788.72
2022-07-29T01:40:37.237Z,99798.19
2022-07-29T01:43:08.278Z,99791.91
2022-07-29T01:45:40.887Z,99806.75
2022-07-29T01:48:12.609Z,99798.44
2022-07-29T01:50:42.657Z,99809.84
2022-07-29T01:53:11.638Z,99797.72
2022-07-29T01:55:42.154Z,99803.19
2022-07-29T01:58:10.169Z,99809.69
2022-07-29T02:00:39.621Z,99807.81
2022-07-29T02:03:12.987Z,99793.34
2022-07-29T02:05:42.594Z,99792.63
2022-07-29T02:08:10.643Z,99803.69
2022-07-29T02:10:38.677Z,99807.47
